createdAt,value
2023-07-21T00:00:17.044Z,6.000000
2023-07-21T00:05:16.848Z,4.000000
2023-07-21T00:10:17.122Z,4.000000
2023-07-21T00:15:17.047Z,3.000000
2023-07-21T00:20:17.055Z,4.000000
2023-07-21T00:25:17.100Z,5.000000
2023-07-21T00:30:17.226Z,4.000000
2023-07-21T00:35:17.039Z,5.000000
2023-07-21T00:40:17.310Z,3.000000
2023-07-21T00:45:17.138Z,4.000000
2023-07-21T00:50:17.074Z,4.000000
2023-07-21T00:55:17.073Z,4.000000
2023-07-21T01:00:17.387Z,4.000000
2023-07-21T01:05:17.202Z,4.000000
2023-07-21T01:10:17.322Z,4.000000
2023-07-21T01:15:17.162Z,6.000000
2023-07-21T01:20:17.198Z,4.000000
2023-07-21T01:25:17.230Z,4.000000
2023-07-21T01:30:17.161Z,4.000000
2023-07-21T01:35:17.194Z,4.000000
2023-07-21T01:40:17.231Z,4.000000
2023-07-21T01:45:17.224Z,6.000000
2023-07-21T01:50:17.312Z,7.000000
2023-07-21T01:55:17.264Z,6.000000
2023-07-21T02:00:17.227Z,5.000000
2023-07-21T02:05:17.195Z,3.000000
2023-07-21T02:10:17.199Z,3.000000
2023-07-21T02:15:17.464Z,3.000000
2023-07-21T02:20:17.424Z,3.000000
2023-07-21T02:25:17.317Z,4.000000
2023-07-21T02:30:17.386Z,3.000000
2023-07-21T02:35:17.439Z,3.000000
2023-07-21T02:40:17.285Z,3.000000
2023-07-21T02:45:17.357Z,3.000000
2023-07-21T02:50:17.531Z,2.000000
2023-07-21T02:55:17.470Z,3.000000
2023-07-21T03:00:17.619Z,3.000000
2023-07-21T03:05:17.501Z,2.000000
2023-07-21T03:10:17.393Z,2.000000
2023-07-21T03:15:17.372Z,1.000000
2023-07-21T03:20:17.510Z,1.000000
2023-07-21T03:25:17.389Z,1.000000
2023-07-21T03:30:17.541Z,0.000000
2023-07-21T03:35:17.416Z,2.000000
2023-07-21T03:40:15.455Z,2.000000
2023-07-21T03:45:15.543Z,2.000000
2023-07-21T03:50:15.521Z,2.000000
2023-07-21T03:55:15.482Z,1.000000
2023-07-21T04:00:16.541Z,1.000000
2023-07-21T04:05:16.446Z,0.000000
2023-07-21T04:10:16.653Z,2.000000
2023-07-21T04:15:17.373Z,2.000000
2023-07-21T04:20:16.565Z,1.000000
2023-07-21T04:25:16.604Z,1.000000
2023-07-21T04:30:16.581Z,2.000000
2023-07-21T04:35:16.728Z,2.000000
2023-07-21T04:40:16.601Z,1.000000
2023-07-21T04:45:16.640Z,2.000000
2023-07-21T04:50:16.688Z,3.000000
2023-07-21T04:55:16.653Z,2.000000
2023-07-21T05:00:16.647Z,2.000000
2023-07-21T05:05:16.703Z,2.000000
2023-07-21T05:10:16.796Z,1.000000
2023-07-21T05:15:16.738Z,1.000000
2023-07-21T05:20:16.674Z,2.000000
2023-07-21T05:25:16.842Z,2.000000
2023-07-21T05:30:16.787Z,1.000000
2023-07-21T05:35:16.640Z,2.000000
2023-07-21T05:40:16.624Z,3.000000
2023-07-21T05:45:16.741Z,2.000000
2023-07-21T05:50:16.737Z,2.000000
2023-07-21T05:55:16.835Z,2.000000
2023-07-21T06:00:16.901Z,3.000000
2023-07-21T06:05:16.685Z,2.000000
2023-07-21T06:10:16.924Z,2.000000
2023-07-21T06:15:16.840Z,1.000000
2023-07-21T06:20:16.977Z,1.000000
2023-07-21T06:25:16.837Z,1.000000
2023-07-21T06:30:16.796Z,1.000000
2023-07-21T06:35:16.848Z,1.000000
2023-07-21T06:40:18.006Z,2.000000
2023-07-21T06:45:16.882Z,5.000000
2023-07-21T06:50:16.909Z,2.000000
2023-07-21T06:55:17.058Z,2.000000
2023-07-21T07:00:16.910Z,2.000000
2023-07-21T07:05:16.842Z,2.000000
2023-07-21T07:10:16.911Z,3.000000
2023-07-21T07:15:16.980Z,2.000000
2023-07-21T07:20:16.946Z,2.000000
2023-07-21T07:25:16.989Z,2.000000
2023-07-21T07:30:17.049Z,2.000000
2023-07-21T07:35:16.952Z,2.000000
2023-07-21T07:40:17.201Z,2.000000
2023-07-21T07:45:17.182Z,3.000000
2023-07-21T07:50:17.050Z,2.000000
2023-07-21T07:55:17.213Z,3.000000
2023-07-21T08:00:17.072Z,4.000000
2023-07-21T08:05:17.152Z,4.000000
2023-07-21T08:10:17.073Z,2.000000
2023-07-21T08:15:17.070Z,1.000000
2023-07-21T08:20:17.080Z,2.000000
2023-07-21T08:25:17.125Z,1.000000
2023-07-21T08:30:17.052Z,3.000000
2023-07-21T08:35:17.237Z,3.000000
2023-07-21T08:40:17.255Z,3.000000
2023-07-21T08:45:17.132Z,1.000000
2023-07-21T08:50:17.134Z,1.000000
2023-07-21T08:55:17.281Z,1.000000
2023-07-21T09:00:17.193Z,1.000000
2023-07-21T09:05:17.270Z,1.000000
2023-07-21T09:10:17.267Z,2.000000
2023-07-21T09:15:17.149Z,2.000000
2023-07-21T09:20:17.296Z,2.000000
2023-07-21T09:25:17.242Z,4.000000
2023-07-21T09:30:17.206Z,5.000000
2023-07-21T09:35:17.281Z,6.000000
2023-07-21T09:40:17.316Z,5.000000
2023-07-21T09:45:17.250Z,5.000000
2023-07-21T09:50:17.290Z,4.000000
2023-07-21T09:55:17.443Z,5.000000
2023-07-21T10:00:17.361Z,3.000000
2023-07-21T10:05:17.363Z,2.000000
2023-07-21T10:10:17.373Z,3.000000
2023-07-21T10:15:17.394Z,3.000000
2023-07-21T10:20:17.430Z,3.000000
2023-07-21T10:25:17.386Z,3.000000
2023-07-21T10:30:17.365Z,2.000000
2023-07-21T10:35:17.648Z,1.000000
2023-07-21T10:40:17.598Z,1.000000
2023-07-21T10:45:15.457Z,3.000000
2023-07-21T10:50:15.495Z,5.000000
2023-07-21T10:55:15.528Z,3.000000
2023-07-21T11:00:15.535Z,3.000000
2023-07-21T11:05:15.501Z,5.000000
2023-07-21T11:10:16.717Z,6.000000
2023-07-21T11:15:15.743Z,7.000000
2023-07-21T11:20:15.529Z,9.000000
2023-07-21T11:25:15.590Z,9.000000
2023-07-21T11:30:15.687Z,9.000000
2023-07-21T11:35:15.587Z,9.000000
2023-07-21T11:40:15.662Z,10.000000
2023-07-21T11:45:15.644Z,9.000000
2023-07-21T11:50:15.599Z,9.000000
2023-07-21T11:55:15.738Z,10.000000
2023-07-21T12:00:15.579Z,11.000000
2023-07-21T12:05:15.541Z,12.000000
2023-07-21T12:10:15.703Z,11.000000
2023-07-21T12:15:15.799Z,11.000000
2023-07-21T12:20:15.764Z,10.000000
2023-07-21T12:25:15.726Z,10.000000
2023-07-21T12:30:15.982Z,10.000000
2023-07-21T12:35:15.651Z,9.000000
2023-07-21T12:40:15.833Z,10.000000
2023-07-21T12:45:15.762Z,10.000000
2023-07-21T12:50:15.755Z,9.000000
2023-07-21T12:55:15.752Z,10.000000
2023-07-21T13:00:15.746Z,11.000000
2023-07-21T13:05:15.748Z,11.000000
2023-07-21T13:10:15.761Z,10.000000
2023-07-21T13:15:15.769Z,7.000000
2023-07-21T13:20:15.824Z,7.000000
2023-07-21T13:25:15.831Z,7.000000
2023-07-21T13:30:15.845Z,8.000000
2023-07-21T13:35:15.857Z,7.000000
2023-07-21T13:40:16.156Z,8.000000
2023-07-21T13:45:16.107Z,8.000000
2023-07-21T13:50:15.837Z,7.000000
2023-07-21T13:55:16.008Z,7.000000
2023-07-21T14:00:15.926Z,7.000000
2023-07-21T14:05:15.836Z,6.000000
2023-07-21T14:10:15.950Z,7.000000
2023-07-21T14:15:16.005Z,6.000000
2023-07-21T14:20:15.891Z,5.000000
2023-07-21T14:25:15.941Z,5.000000
2023-07-21T14:30:15.992Z,8.000000
2023-07-21T14:35:16.106Z,8.000000
2023-07-21T14:40:16.250Z,7.000000
2023-07-21T14:45:16.038Z,9.000000
2023-07-21T14:50:16.028Z,9.000000
2023-07-21T14:55:16.012Z,7.000000
2023-07-21T15:00:16.224Z,6.000000
2023-07-21T15:05:16.010Z,4.000000
2023-07-21T15:10:16.168Z,7.000000
2023-07-21T15:15:16.083Z,5.000000
2023-07-21T15:20:16.227Z,4.000000
2023-07-21T15:25:16.357Z,6.000000
2023-07-21T15:30:16.113Z,7.000000
2023-07-21T15:35:16.193Z,6.000000
2023-07-21T15:40:16.173Z,7.000000
2023-07-21T15:45:16.176Z,6.000000
2023-07-21T15:50:16.307Z,5.000000
2023-07-21T15:55:16.241Z,6.000000
2023-07-21T16:00:17.204Z,7.000000
2023-07-21T16:05:16.246Z,6.000000
2023-07-21T16:10:16.554Z,6.000000
2023-07-21T16:15:16.269Z,6.000000
2023-07-21T16:20:16.249Z,6.000000
2023-07-21T16:25:16.219Z,7.000000
2023-07-21T16:30:16.330Z,6.000000
2023-07-21T16:35:16.379Z,7.000000
2023-07-21T16:40:16.287Z,5.000000
2023-07-21T16:45:16.263Z,5.000000
2023-07-21T16:50:16.535Z,4.000000
2023-07-21T16:55:16.557Z,4.000000
2023-07-21T17:00:16.319Z,3.000000
2023-07-21T17:05:31.262Z,5.000000
2023-07-21T17:10:16.458Z,4.000000
2023-07-21T17:15:16.379Z,3.000000
2023-07-21T17:20:16.412Z,3.000000
2023-07-21T17:25:16.703Z,4.000000
2023-07-21T17:30:16.508Z,7.000000
2023-07-21T17:35:16.565Z,9.000000
2023-07-21T17:40:16.617Z,12.000000
2023-07-21T17:45:16.594Z,7.000000
2023-07-21T17:50:16.456Z,8.000000
2023-07-21T17:55:16.440Z,7.000000
2023-07-21T18:00:16.604Z,7.000000
2023-07-21T18:05:16.366Z,8.000000
2023-07-21T18:10:16.553Z,8.000000
2023-07-21T18:15:16.485Z,8.000000
2023-07-21T18:20:16.475Z,7.000000
2023-07-21T18:25:16.574Z,6.000000
2023-07-21T18:30:16.628Z,9.000000
2023-07-21T18:35:16.578Z,10.000000
2023-07-21T18:40:16.555Z,9.000000
2023-07-21T18:45:16.504Z,9.000000
2023-07-21T18:50:16.578Z,6.000000
2023-07-21T18:55:16.631Z,6.000000
2023-07-21T19:00:16.643Z,6.000000
2023-07-21T19:05:16.765Z,7.000000
2023-07-21T19:10:16.632Z,7.000000
2023-07-21T19:15:16.607Z,6.000000
2023-07-21T19:20:16.603Z,10.000000
2023-07-21T19:25:16.792Z,10.000000
2023-07-21T19:30:16.608Z,8.000000
2023-07-21T19:35:16.639Z,8.000000
2023-07-21T19:40:16.867Z,8.000000
2023-07-21T19:45:16.835Z,9.000000
2023-07-21T19:50:16.704Z,8.000000
2023-07-21T19:55:16.799Z,9.000000
2023-07-21T20:00:16.875Z,8.000000
2023-07-21T20:05:16.589Z,12.000000
2023-07-21T20:10:16.905Z,13.000000
2023-07-21T20:15:16.782Z,14.000000
2023-07-21T20:20:16.787Z,12.000000
2023-07-21T20:25:16.815Z,14.000000
2023-07-21T20:30:16.806Z,13.000000
2023-07-21T20:35:16.777Z,9.000000
2023-07-21T20:40:16.947Z,9.000000
2023-07-21T20:45:16.923Z,9.000000
2023-07-21T20:50:16.872Z,9.000000
2023-07-21T20:55:16.857Z,10.000000
2023-07-21T21:00:16.870Z,9.000000
2023-07-21T21:05:16.893Z,10.000000
2023-07-21T21:10:16.921Z,9.000000
2023-07-21T21:15:16.906Z,10.000000
2023-07-21T21:20:16.892Z,9.000000
2023-07-21T21:25:16.880Z,12.000000
2023-07-21T21:30:16.928Z,10.000000
2023-07-21T21:35:16.958Z,9.000000
2023-07-21T21:40:17.007Z,11.000000
2023-07-21T21:45:16.918Z,9.000000
2023-07-21T21:50:16.991Z,11.000000
2023-07-21T21:55:25.655Z,12.000000
2023-07-21T22:00:17.045Z,11.000000
2023-07-21T22:05:16.961Z,12.000000
2023-07-21T22:10:17.165Z,10.000000
2023-07-21T22:15:17.227Z,11.000000
2023-07-21T22:20:17.030Z,10.000000
2023-07-21T22:25:17.196Z,11.000000
2023-07-21T22:30:17.133Z,9.000000
2023-07-21T22:35:17.056Z,9.000000
2023-07-21T22:40:17.141Z,8.000000
2023-07-21T22:45:17.180Z,6.000000
2023-07-21T22:50:17.093Z,6.000000
2023-07-21T22:55:17.172Z,5.000000
2023-07-21T23:00:17.230Z,5.000000
2023-07-21T23:05:17.318Z,12.000000
2023-07-21T23:10:17.135Z,10.000000
2023-07-21T23:15:17.264Z,4.000000
2023-07-21T23:20:17.238Z,3.000000
2023-07-21T23:25:17.161Z,3.000000
2023-07-21T23:30:17.208Z,4.000000
2023-07-21T23:35:17.270Z,4.000000
2023-07-21T23:40:17.410Z,4.000000
2023-07-21T23:45:17.325Z,4.000000
2023-07-21T23:50:17.321Z,7.000000
2023-07-21T23:55:17.263Z,6.000000
